Air Navigation Services of Czech Republic
Airport: LKNA Updated:  03.12.2021 19:59:28  UTC
 METAR LKNA 03.12. 20:00 ...
METAR LKNA 032000Z 21005KT CAVOK M03/M05 Q1013 NOSIG RMK BLU BLU=
 TAF LKNA 03.12. 17:00 ...
TAF LKNA 031700Z 0318/0418 20005KT CAVOK      TEMPO 0401/0410 17005KT 1500 BR BKN003      BECMG 0410/0412 15010KT 3000 SN BR OVC008      PROB30 TEMPO 0412/0418 1500 SN BR OVC005=